CheckWX is a tool to help pilots better visualize weather data.  It is not intended as a substitute for an official pre-flight weather briefing.

17:26:00 UTC

KDTN METAR
Shreveport Downtown Airport
Shreveport, Louisiana, USA
Current

33 mins ago

KDTN 211653Z 26006KT 10SM CLR 32/23 A2999 RMK AO2 SLP152 T03220233
Observed
Jul-21 @ 16:53 UTC
Wind
  • 260° at 6 KTS
Visibility
10 SM
Flight Rules
VFR
Cloud Levels
  • Clear skies
Temperature
32°C / 90°F
Dewpoint
23°C / 73°F
Heat Index
37°C / 99°F
Humidity
59%
Altimeter
29.99" Hg
Pressure
1015.62 hPa
Previous

2 hours ago

KDTN 211553Z 24007KT 10SM SCT024 31/24 A2999 RMK AO2 SLP153 T03060239
Observed
Jul-21 @ 15:53 UTC
Wind
  • 240° at 7 KTS
Visibility
10 SM
Flight Rules
VFR
Cloud Levels
  • Scattered at 2,400' AGL
Temperature
31°C / 88°F
Dewpoint
24°C / 75°F
Heat Index
37°C / 98°F
Humidity
66%
Altimeter
29.99" Hg
Pressure
1015.62 hPa
Previous

3 hours ago

KDTN 211453Z 23007KT 10SM FEW019 31/25 A3000 RMK AO2 SLP155 T03110250 50003
Observed
Jul-21 @ 14:53 UTC
Wind
  • 230° at 7 KTS
Visibility
10 SM
Flight Rules
VFR
Cloud Levels
  • Few at 1,900' AGL
Temperature
31°C / 88°F
Dewpoint
25°C / 77°F
Heat Index
38°C / 100°F
Humidity
70%
Altimeter
30" Hg
Pressure
1015.92 hPa